createdAt,value
2023-02-11T00:00:25.749Z,16.85
2023-02-11T00:02:53.315Z,17.10
2023-02-11T00:05:20.872Z,16.83
2023-02-11T00:07:48.457Z,17.10
2023-02-11T00:10:16.025Z,16.60
2023-02-11T00:12:43.659Z,15.73
2023-02-11T00:15:11.394Z,16.90
2023-02-11T00:17:38.947Z,16.38
2023-02-11T00:20:08.309Z,16.33
2023-02-11T00:22:35.941Z,15.50
2023-02-11T00:25:03.671Z,15.90
2023-02-11T00:27:31.344Z,15.85
2023-02-11T00:30:02.168Z,16.00
2023-02-11T00:32:31.604Z,17.02
2023-02-11T00:34:59.232Z,16.23
2023-02-11T00:37:26.832Z,14.65
2023-02-11T00:39:54.504Z,16.65
2023-02-11T00:42:22.073Z,16.02
2023-02-11T00:44:49.669Z,15.40
2023-02-11T00:47:17.831Z,14.98
2023-02-11T00:49:45.433Z,15.05
2023-02-11T00:52:13.108Z,15.63
2023-02-11T00:54:44.993Z,15.02
2023-02-11T00:57:12.653Z,14.20
2023-02-11T00:59:41.318Z,15.23
2023-02-11T01:02:08.938Z,14.90
2023-02-11T01:04:37.531Z,15.95
2023-02-11T01:07:05.155Z,15.18
2023-02-11T01:09:32.705Z,15.55
2023-02-11T01:12:00.315Z,16.27
2023-02-11T01:14:27.902Z,14.45
2023-02-11T01:16:55.490Z,14.18
2023-02-11T01:19:23.125Z,14.23
2023-02-11T01:21:50.713Z,14.55
2023-02-11T01:24:22.658Z,15.07
2023-02-11T01:26:50.294Z,14.63
2023-02-11T01:29:17.901Z,13.52
2023-02-11T01:31:45.502Z,14.18
2023-02-11T01:34:13.091Z,13.93
2023-02-11T01:36:40.852Z,13.48
2023-02-11T01:39:08.847Z,13.27
2023-02-11T01:41:36.729Z,13.38
2023-02-11T01:44:23.937Z,13.63
2023-02-11T01:46:51.649Z,13.82
2023-02-11T01:49:23.330Z,14.27
2023-02-11T01:52:14.395Z,13.53
2023-02-11T01:55:05.851Z,14.13
2023-02-11T01:57:35.351Z,13.43
2023-02-11T02:00:22.364Z,13.75
2023-02-11T02:02:57.550Z,13.88
2023-02-11T02:05:26.095Z,13.68
2023-02-11T02:07:53.628Z,13.68
2023-02-11T02:10:22.826Z,13.43
2023-02-11T02:12:50.406Z,13.07
2023-02-11T02:15:23.050Z,13.00
2023-02-11T02:17:57.720Z,13.25
2023-02-11T02:20:25.279Z,12.63
2023-02-11T02:23:12.388Z,12.88
2023-02-11T02:25:46.044Z,13.10
2023-02-11T02:28:20.741Z,13.25
2023-02-11T02:30:57.551Z,13.38
2023-02-11T02:33:30.398Z,13.75
2023-02-11T02:36:33.543Z,14.27
2023-02-11T02:39:11.543Z,12.23
2023-02-11T02:41:39.727Z,13.18
2023-02-11T02:44:08.224Z,11.65
2023-02-11T02:46:36.246Z,12.77
2023-02-11T02:49:04.211Z,12.18
2023-02-11T02:51:44.032Z,12.30
2023-02-11T02:54:33.948Z,11.95
2023-02-11T02:57:20.287Z,11.93
2023-02-11T03:00:03.168Z,10.20
2023-02-11T03:02:49.978Z,11.85
2023-02-11T03:05:20.168Z,10.23
2023-02-11T03:07:59.605Z,9.77
2023-02-11T03:10:28.889Z,9.93
2023-02-11T03:12:57.153Z,10.15
2023-02-11T03:15:26.183Z,10.70
2023-02-11T03:17:55.231Z,9.95
2023-02-11T03:20:23.710Z,10.68
2023-02-11T03:22:51.264Z,10.18
2023-02-11T03:25:19.595Z,10.60
2023-02-11T03:27:49.440Z,9.65
2023-02-11T03:30:19.881Z,9.63
2023-02-11T03:32:52.724Z,9.55
2023-02-11T03:35:49.993Z,9.95
2023-02-11T03:38:23.455Z,9.30
2023-02-11T03:40:51.147Z,9.23
2023-02-11T03:43:21.095Z,9.82
2023-02-11T03:45:50.305Z,8.70
2023-02-11T03:48:24.324Z,8.63
2023-02-11T03:50:52.621Z,8.80
2023-02-11T03:53:21.315Z,8.40
2023-02-11T03:55:50.592Z,8.73
2023-02-11T03:58:19.398Z,8.85
2023-02-11T04:00:47.092Z,8.15
2023-02-11T04:03:14.767Z,8.70
2023-02-11T04:05:42.360Z,8.77
2023-02-11T04:08:09.938Z,7.82
2023-02-11T04:10:37.672Z,8.50
2023-02-11T04:13:05.256Z,7.85
2023-02-11T04:15:33.014Z,8.10
2023-02-11T04:18:00.634Z,8.07
2023-02-11T04:20:28.187Z,7.93
2023-02-11T04:22:55.810Z,8.50
2023-02-11T04:25:23.397Z,8.15
2023-02-11T04:27:50.958Z,8.50
2023-02-11T04:30:18.558Z,7.95
2023-02-11T04:32:46.125Z,8.45
2023-02-11T04:35:13.728Z,8.00
2023-02-11T04:37:41.298Z,8.48
2023-02-11T04:40:09.199Z,8.82
2023-02-11T04:42:36.753Z,8.43
2023-02-11T04:45:04.576Z,8.68
2023-02-11T04:47:32.140Z,8.02
2023-02-11T04:49:59.689Z,7.88
2023-02-11T04:52:27.312Z,8.73
2023-02-11T04:54:54.861Z,8.30
2023-02-11T04:57:22.500Z,7.82
2023-02-11T04:59:50.050Z,8.63
2023-02-11T05:02:17.634Z,7.82
2023-02-11T05:04:45.266Z,8.25
2023-02-11T05:07:12.988Z,7.90
2023-02-11T05:09:40.568Z,8.35
2023-02-11T05:12:08.236Z,8.07
2023-02-11T05:14:35.881Z,8.15
2023-02-11T05:17:03.590Z,8.02
2023-02-11T05:19:31.953Z,8.15
2023-02-11T05:22:03.195Z,8.43
2023-02-11T05:24:33.919Z,8.45
2023-02-11T05:27:01.710Z,8.52
2023-02-11T05:29:29.458Z,8.18
2023-02-11T05:31:56.982Z,7.85
2023-02-11T05:34:24.538Z,8.50
2023-02-11T05:36:54.242Z,8.63
2023-02-11T05:39:21.878Z,8.18
2023-02-11T05:41:49.436Z,8.18
2023-02-11T05:44:17.032Z,9.45
2023-02-11T05:46:44.741Z,8.50
2023-02-11T05:49:12.477Z,7.95
2023-02-11T05:51:41.070Z,8.43
2023-02-11T05:54:08.693Z,8.45
2023-02-11T05:56:36.266Z,8.35
2023-02-11T05:59:03.904Z,8.30
2023-02-11T06:01:31.551Z,8.35
2023-02-11T06:03:59.147Z,7.82
2023-02-11T06:06:26.744Z,8.18
2023-02-11T06:08:54.301Z,7.43
2023-02-11T06:11:21.860Z,7.80
2023-02-11T06:13:49.931Z,7.55
2023-02-11T06:16:17.543Z,7.13
2023-02-11T06:18:45.147Z,6.88
2023-02-11T06:21:12.797Z,7.78
2023-02-11T06:23:40.413Z,6.60
2023-02-11T06:26:08.764Z,7.65
2023-02-11T06:28:38.707Z,7.53
2023-02-11T06:31:08.173Z,6.85
2023-02-11T06:33:36.117Z,7.85
2023-02-11T06:36:04.792Z,7.05
2023-02-11T06:38:33.486Z,7.75
2023-02-11T06:41:01.145Z,7.40
2023-02-11T06:43:28.711Z,7.22
2023-02-11T06:45:56.840Z,7.00
2023-02-11T06:48:24.451Z,7.25
2023-02-11T06:50:52.082Z,7.25
2023-02-11T06:53:19.629Z,6.70
2023-02-11T06:55:47.186Z,7.43
2023-02-11T06:58:14.811Z,7.20
2023-02-11T07:00:42.402Z,7.38
2023-02-11T07:03:09.998Z,7.57
2023-02-11T07:05:38.654Z,7.35
2023-02-11T07:08:06.275Z,8.00
2023-02-11T07:10:34.574Z,7.70
2023-02-11T07:13:02.170Z,7.47
2023-02-11T07:15:29.752Z,7.95
2023-02-11T07:17:57.325Z,6.93
2023-02-11T07:20:25.000Z,6.90
2023-02-11T07:22:52.612Z,7.15
2023-02-11T07:25:20.193Z,6.85
2023-02-11T07:27:47.787Z,6.15
2023-02-11T07:30:15.668Z,7.10
2023-02-11T07:32:43.230Z,5.85
2023-02-11T07:35:10.777Z,5.88
2023-02-11T07:37:38.311Z,7.10
2023-02-11T07:40:07.517Z,6.60
2023-02-11T07:42:35.760Z,6.25
2023-02-11T07:45:03.363Z,6.80
2023-02-11T07:47:31.048Z,6.90
2023-02-11T07:49:59.606Z,6.55
2023-02-11T07:52:30.153Z,6.50
2023-02-11T07:54:57.905Z,6.25
2023-02-11T07:57:25.540Z,6.53
2023-02-11T07:59:53.790Z,6.38
2023-02-11T08:02:21.384Z,6.55
2023-02-11T08:04:49.110Z,6.13
2023-02-11T08:07:17.437Z,5.82
2023-02-11T08:09:45.258Z,6.38
2023-02-11T08:12:12.838Z,6.40
2023-02-11T08:14:40.445Z,6.63
2023-02-11T08:17:07.976Z,6.28
2023-02-11T08:19:35.574Z,6.78
2023-02-11T08:22:03.194Z,6.53
2023-02-11T08:24:30.779Z,6.82
2023-02-11T08:26:58.350Z,6.82
2023-02-11T08:29:25.902Z,6.63
2023-02-11T08:31:53.494Z,7.00
2023-02-11T08:34:21.938Z,7.20
2023-02-11T08:36:49.719Z,6.47
2023-02-11T08:39:20.466Z,7.57
2023-02-11T08:41:53.288Z,6.75
2023-02-11T08:44:21.513Z,7.97
2023-02-11T08:46:49.486Z,8.10
2023-02-11T08:49:17.053Z,7.90
2023-02-11T08:51:45.089Z,7.63
2023-02-11T08:54:13.230Z,8.40
2023-02-11T08:56:40.817Z,7.80
2023-02-11T08:59:09.279Z,7.88
2023-02-11T09:01:37.127Z,7.65
2023-02-11T09:04:04.800Z,8.05
2023-02-11T09:06:32.636Z,8.20
2023-02-11T09:09:00.346Z,8.50
2023-02-11T09:11:29.905Z,8.70
2023-02-11T09:13:57.794Z,9.45
2023-02-11T09:16:26.996Z,9.85
2023-02-11T09:18:56.561Z,10.00
2023-02-11T09:21:24.104Z,11.18
2023-02-11T09:23:51.658Z,10.95
2023-02-11T09:26:27.166Z,10.02
2023-02-11T09:28:55.002Z,10.05
2023-02-11T09:31:25.745Z,9.07
2023-02-11T09:33:54.639Z,9.73
2023-02-11T09:36:23.770Z,9.52
2023-02-11T09:38:51.941Z,9.38
2023-02-11T09:41:22.262Z,8.95
2023-02-11T09:43:51.752Z,9.88
2023-02-11T09:46:21.092Z,10.07
2023-02-11T09:48:49.834Z,9.82
2023-02-11T09:51:20.721Z,10.00
2023-02-11T09:53:51.710Z,10.13
2023-02-11T09:56:19.265Z,9.57
2023-02-11T09:58:47.200Z,9.95
2023-02-11T10:01:21.812Z,9.63
2023-02-11T10:04:05.006Z,9.80
2023-02-11T10:06:32.635Z,9.10
2023-02-11T10:09:00.201Z,9.77
2023-02-11T10:11:34.729Z,10.10
2023-02-11T10:14:25.650Z,9.85
2023-02-11T10:17:13.450Z,10.50
2023-02-11T10:19:50.953Z,11.43
2023-02-11T10:22:18.683Z,10.27
2023-02-11T10:24:54.665Z,11.35
2023-02-11T10:27:25.147Z,10.43
2023-02-11T10:29:57.531Z,11.45
2023-02-11T10:32:32.524Z,10.55
2023-02-11T10:35:03.085Z,10.88
2023-02-11T10:37:31.143Z,10.85
2023-02-11T10:39:58.795Z,11.05
2023-02-11T10:42:27.054Z,10.98
2023-02-11T10:44:58.317Z,10.73
2023-02-11T10:47:28.203Z,11.07
2023-02-11T10:49:55.801Z,10.80
2023-02-11T10:52:24.876Z,10.98
2023-02-11T10:55:07.052Z,10.52
2023-02-11T10:57:36.403Z,11.18
2023-02-11T11:00:18.977Z,11.35
2023-02-11T11:02:46.784Z,11.05
2023-02-11T11:05:18.639Z,10.95
2023-02-11T11:10:31.130Z,10.38
2023-02-11T11:12:58.730Z,10.45
2023-02-11T11:15:27.782Z,10.60
2023-02-11T11:18:21.390Z,10.57
2023-02-11T11:21:13.108Z,10.70
2023-02-11T11:23:41.292Z,9.93
2023-02-11T11:26:16.929Z,9.70
2023-02-11T11:28:50.373Z,10.13
2023-02-11T11:31:19.881Z,10.32
2023-02-11T11:33:48.109Z,10.73
2023-02-11T11:36:21.844Z,10.38
2023-02-11T11:38:51.607Z,9.57
2023-02-11T11:41:19.230Z,9.73
2023-02-11T11:44:00.438Z,9.38
2023-02-11T11:46:39.459Z,8.95
2023-02-11T11:49:27.659Z,9.80
2023-02-11T11:52:08.422Z,10.45
2023-02-11T11:54:37.373Z,10.77
2023-02-11T11:57:14.319Z,10.15
2023-02-11T11:59:42.052Z,11.00
2023-02-11T12:02:27.087Z,10.63
2023-02-11T12:04:59.038Z,10.60
2023-02-11T12:10:23.218Z,8.90
2023-02-11T12:12:56.653Z,10.18
2023-02-11T12:15:32.659Z,9.32
2023-02-11T12:18:00.163Z,9.50
2023-02-11T12:20:30.861Z,9.23
2023-02-11T12:23:05.868Z,9.30
2023-02-11T12:25:56.766Z,9.48
2023-02-11T12:28:30.152Z,9.45
2023-02-11T12:31:06.063Z,9.35
2023-02-11T12:33:52.691Z,10.20
2023-02-11T12:36:35.226Z,8.70
2023-02-11T12:39:16.251Z,9.15
2023-02-11T12:42:17.880Z,9.45
2023-02-11T12:44:51.704Z,8.90
2023-02-11T12:47:35.690Z,9.38
2023-02-11T12:50:23.763Z,9.88
2023-02-11T12:53:06.797Z,10.18
2023-02-11T12:55:37.241Z,10.02
2023-02-11T12:58:06.486Z,9.80
2023-02-11T13:00:54.565Z,9.85
2023-02-11T13:03:26.403Z,10.27
2023-02-11T13:05:55.933Z,9.57
2023-02-11T13:08:28.513Z,8.60
2023-02-11T13:10:58.490Z,9.77
2023-02-11T13:13:28.200Z,9.02
2023-02-11T13:16:00.300Z,9.88
2023-02-11T13:18:36.986Z,10.93
2023-02-11T13:21:19.675Z,9.88
2023-02-11T13:23:58.090Z,9.77
2023-02-11T13:26:38.408Z,9.05
2023-02-11T13:29:29.777Z,10.20
2023-02-11T13:32:12.958Z,8.98
2023-02-11T13:34:43.225Z,8.90
2023-02-11T13:37:27.449Z,9.57
2023-02-11T13:40:02.546Z,9.63
2023-02-11T13:42:49.553Z,9.15
2023-02-11T13:45:18.467Z,8.27
2023-02-11T13:47:47.749Z,9.07
2023-02-11T13:50:31.241Z,9.23
2023-02-11T13:53:02.608Z,9.02
2023-02-11T13:55:30.539Z,8.70
2023-02-11T13:58:10.723Z,8.90
2023-02-11T14:00:38.237Z,9.27
2023-02-11T14:03:30.420Z,7.45
2023-02-11T14:08:59.743Z,8.30
2023-02-11T14:11:33.928Z,8.25
2023-02-11T14:14:15.715Z,8.75
2023-02-11T14:17:08.248Z,8.15
2023-02-11T14:19:40.683Z,9.32
2023-02-11T14:24:36.742Z,8.68
2023-02-11T14:27:07.197Z,8.63
2023-02-11T14:29:47.351Z,8.68
2023-02-11T14:32:33.992Z,8.52
2023-02-11T14:35:10.704Z,8.43
2023-02-11T14:37:56.546Z,9.30
2023-02-11T14:40:28.346Z,9.55
2023-02-11T14:42:56.438Z,9.65
2023-02-11T14:45:26.464Z,10.57
2023-02-11T14:47:54.020Z,9.98
2023-02-11T14:50:41.871Z,10.45
2023-02-11T14:53:13.866Z,10.50
2023-02-11T14:55:43.605Z,10.90
2023-02-11T14:58:14.199Z,10.90
2023-02-11T15:00:54.237Z,11.23
2023-02-11T15:03:33.010Z,11.20
2023-02-11T15:06:02.557Z,10.65
2023-02-11T15:08:30.872Z,11.75
2023-02-11T15:11:01.641Z,10.25
2023-02-11T15:13:31.069Z,11.52
2023-02-11T15:16:01.993Z,12.05
2023-02-11T15:18:33.429Z,11.80
2023-02-11T15:21:01.151Z,12.02
2023-02-11T15:23:29.974Z,12.63
2023-02-11T15:25:57.748Z,12.57
2023-02-11T15:28:35.064Z,12.50
2023-02-11T15:31:06.666Z,13.93
2023-02-11T15:33:34.270Z,13.35
2023-02-11T15:36:03.038Z,14.23
2023-02-11T15:38:30.830Z,12.95
2023-02-11T15:41:00.765Z,12.23
2023-02-11T15:43:54.141Z,12.85
2023-02-11T15:46:22.552Z,12.35
2023-02-11T15:48:50.111Z,12.55
2023-02-11T15:51:25.344Z,13.63
2023-02-11T15:53:56.683Z,13.43
2023-02-11T15:56:25.858Z,13.05
2023-02-11T15:58:55.949Z,12.57
2023-02-11T16:01:33.894Z,14.02
2023-02-11T16:04:02.043Z,14.32
2023-02-11T16:06:39.178Z,13.57
2023-02-11T16:09:06.724Z,14.18
2023-02-11T16:11:35.642Z,13.70
2023-02-11T16:14:06.647Z,14.07
2023-02-11T16:16:35.354Z,13.02
2023-02-11T16:19:05.781Z,14.82
2023-02-11T16:21:39.015Z,13.93
2023-02-11T16:24:08.615Z,14.00
2023-02-11T16:26:42.938Z,13.98
2023-02-11T16:29:15.054Z,12.93
2023-02-11T16:31:43.842Z,14.02
2023-02-11T16:34:22.611Z,14.77
2023-02-11T16:36:51.297Z,12.88
2023-02-11T16:39:21.500Z,13.75
2023-02-11T16:41:50.662Z,14.23
2023-02-11T16:44:18.405Z,13.75
2023-02-11T16:46:46.528Z,13.95
2023-02-11T16:49:19.993Z,14.65
2023-02-11T16:51:49.369Z,14.73
2023-02-11T16:54:18.188Z,14.63
2023-02-11T16:56:46.048Z,14.25
2023-02-11T16:59:13.695Z,14.60
2023-02-11T17:01:42.461Z,14.75
2023-02-11T17:04:25.131Z,14.00
2023-02-11T17:06:52.972Z,14.88
2023-02-11T17:09:31.109Z,14.70
2023-02-11T17:11:58.886Z,14.15
2023-02-11T17:14:26.620Z,15.50
2023-02-11T17:16:54.148Z,14.35
2023-02-11T17:19:21.898Z,15.48
2023-02-11T17:21:50.813Z,14.40
2023-02-11T17:24:20.201Z,15.27
2023-02-11T17:26:47.779Z,15.52
2023-02-11T17:29:18.082Z,15.13
2023-02-11T17:31:45.768Z,16.42
2023-02-11T17:34:13.445Z,15.57
2023-02-11T17:36:43.811Z,16.40
2023-02-11T17:39:11.903Z,15.82
2023-02-11T17:41:39.843Z,16.75
2023-02-11T17:44:12.195Z,16.38
2023-02-11T17:46:39.840Z,17.50
2023-02-11T17:49:07.418Z,16.55
2023-02-11T17:51:37.189Z,16.65
2023-02-11T17:54:06.098Z,15.93
2023-02-11T17:56:34.751Z,14.93
2023-02-11T17:59:02.852Z,15.27
2023-02-11T18:01:31.228Z,16.00
2023-02-11T18:03:58.946Z,14.65
2023-02-11T18:06:26.527Z,14.90
2023-02-11T18:08:58.007Z,29.88
2023-02-11T18:11:25.907Z,38.63
2023-02-11T18:13:54.561Z,13.95
2023-02-11T18:16:22.769Z,14.93
2023-02-11T18:18:50.857Z,13.88
2023-02-11T18:21:20.381Z,13.73
2023-02-11T18:23:48.193Z,14.25
2023-02-11T18:26:16.585Z,13.07
2023-02-11T18:28:46.002Z,13.85
2023-02-11T18:31:14.478Z,17.20
2023-02-11T18:33:42.450Z,13.10
2023-02-11T18:36:11.628Z,13.82
2023-02-11T18:38:39.313Z,15.35
2023-02-11T18:41:07.421Z,13.82
2023-02-11T18:43:35.620Z,13.82
2023-02-11T18:46:06.968Z,13.82
2023-02-11T18:48:34.806Z,15.50
2023-02-11T18:51:02.355Z,14.90
2023-02-11T18:53:29.961Z,16.15
2023-02-11T18:55:57.518Z,14.02
2023-02-11T18:58:25.054Z,14.90
2023-02-11T19:00:52.675Z,15.60
2023-02-11T19:03:20.348Z,17.10
2023-02-11T19:05:49.227Z,17.02
2023-02-11T19:08:17.469Z,15.93
2023-02-11T19:10:46.322Z,17.63
2023-02-11T19:13:14.727Z,19.35
2023-02-11T19:15:43.115Z,17.35
2023-02-11T19:18:11.376Z,16.63
2023-02-11T19:20:44.020Z,17.92
2023-02-11T19:23:11.778Z,17.90
2023-02-11T19:25:45.160Z,17.88
2023-02-11T19:28:13.142Z,18.55
2023-02-11T19:30:40.955Z,22.25
2023-02-11T19:33:10.235Z,24.35
2023-02-11T19:35:37.945Z,17.90
2023-02-11T19:38:05.904Z,18.25
2023-02-11T19:40:33.574Z,16.73
2023-02-11T19:43:01.122Z,17.50
2023-02-11T19:45:28.757Z,20.48
2023-02-11T19:47:56.781Z,19.58
2023-02-11T19:50:24.783Z,23.48
2023-02-11T19:52:52.316Z,25.52
2023-02-11T19:55:19.900Z,23.05
2023-02-11T19:57:47.468Z,19.52
2023-02-11T20:00:15.241Z,21.27
2023-02-11T20:02:42.865Z,18.92
2023-02-11T20:05:10.469Z,18.58
2023-02-11T20:07:38.099Z,18.23
2023-02-11T20:10:05.997Z,18.80
2023-02-11T20:12:33.542Z,20.05
2023-02-11T20:15:01.166Z,18.50
2023-02-11T20:17:28.816Z,27.83
2023-02-11T20:19:56.359Z,18.70
2023-02-11T20:22:23.923Z,18.98
2023-02-11T20:24:51.574Z,18.30
2023-02-11T20:27:20.190Z,17.95
2023-02-11T20:29:47.816Z,25.77
2023-02-11T20:32:15.484Z,23.95
2023-02-11T20:34:43.044Z,20.13
2023-02-11T20:37:10.703Z,19.45
2023-02-11T20:39:40.874Z,19.63
2023-02-11T20:42:12.088Z,19.33
2023-02-11T20:44:39.708Z,22.80
2023-02-11T20:47:07.549Z,18.58
2023-02-11T20:49:35.118Z,18.33
2023-02-11T20:52:02.712Z,37.55
2023-02-11T20:54:30.437Z,17.23
2023-02-11T20:56:58.232Z,18.50
2023-02-11T20:59:26.411Z,37.30
2023-02-11T21:01:55.967Z,20.63
2023-02-11T21:04:25.299Z,18.33
2023-02-11T21:06:54.945Z,19.95
2023-02-11T21:09:24.241Z,27.27
2023-02-11T21:11:52.540Z,21.00
2023-02-11T21:14:22.141Z,35.15
2023-02-11T21:16:49.922Z,23.98
2023-02-11T21:19:17.543Z,30.52
2023-02-11T21:21:45.434Z,20.95
2023-02-11T21:24:13.404Z,19.02
2023-02-11T21:26:41.121Z,31.88
2023-02-11T21:29:08.980Z,27.30
2023-02-11T21:31:37.319Z,22.35
2023-02-11T21:34:05.904Z,20.23
2023-02-11T21:36:33.808Z,20.15
2023-02-11T21:39:03.653Z,18.55
2023-02-11T21:41:31.259Z,20.63
2023-02-11T21:43:59.193Z,17.75
2023-02-11T21:46:26.968Z,20.40
2023-02-11T21:48:54.591Z,18.52
2023-02-11T21:51:23.512Z,17.00
2023-02-11T21:54:01.326Z,18.20
2023-02-11T21:56:30.186Z,18.88
2023-02-11T21:58:59.196Z,17.20
2023-02-11T22:01:28.343Z,17.88
2023-02-11T22:03:56.363Z,16.95
2023-02-11T22:06:30.755Z,17.45
2023-02-11T22:08:58.755Z,18.05
2023-02-11T22:11:26.449Z,18.23
2023-02-11T22:13:58.825Z,18.23
2023-02-11T22:16:27.093Z,17.38
2023-02-11T22:18:56.738Z,18.13
2023-02-11T22:21:24.481Z,17.90
2023-02-11T22:23:52.406Z,17.55
2023-02-11T22:26:21.742Z,17.08
2023-02-11T22:28:49.868Z,23.65
2023-02-11T22:31:19.401Z,17.10
2023-02-11T22:33:47.190Z,17.08
2023-02-11T22:36:22.168Z,17.58
2023-02-11T22:38:49.867Z,16.80
2023-02-11T22:41:17.882Z,16.92
2023-02-11T22:43:45.554Z,16.83
2023-02-11T22:46:15.767Z,25.67
2023-02-11T22:48:43.528Z,16.23
2023-02-11T22:51:12.696Z,17.15
2023-02-11T22:53:40.352Z,16.27
2023-02-11T22:56:09.389Z,16.10
2023-02-11T22:58:37.068Z,16.08
2023-02-11T23:01:05.289Z,16.52
2023-02-11T23:03:33.653Z,17.48
2023-02-11T23:06:01.613Z,16.27
2023-02-11T23:08:30.501Z,16.65
2023-02-11T23:11:04.297Z,16.23
2023-02-11T23:13:31.955Z,16.27
2023-02-11T23:15:59.626Z,16.65
2023-02-11T23:18:27.195Z,16.90
2023-02-11T23:20:54.813Z,16.00
2023-02-11T23:23:22.458Z,15.57
2023-02-11T23:25:50.004Z,16.63
2023-02-11T23:28:17.600Z,15.70
2023-02-11T23:30:45.274Z,16.50
2023-02-11T23:33:13.309Z,15.77
2023-02-11T23:35:40.845Z,16.67
2023-02-11T23:38:08.405Z,16.02
2023-02-11T23:40:35.977Z,16.67
2023-02-11T23:43:03.748Z,16.25
2023-02-11T23:45:31.576Z,17.90
2023-02-11T23:47:59.174Z,16.05
2023-02-11T23:50:26.724Z,16.77
2023-02-11T23:52:54.701Z,18.42
2023-02-11T23:55:22.291Z,16.08
2023-02-11T23:57:49.892Z,17.38
